sensor_id;sensor_type;location;lat;lon;timestamp;P1;durP1;ratioP1;P2;durP2;ratioP2
18214;SDS011;9233;51.312;6.512;2022-10-15T00:00:50;7.23;;;5.30;;
18214;SDS011;9233;51.312;6.512;2022-10-15T00:03:38;7.13;;;5.40;;
18214;SDS011;9233;51.312;6.512;2022-10-15T00:06:27;7.37;;;5.27;;
18214;SDS011;9233;51.312;6.512;2022-10-15T00:09:13;8.97;;;5.33;;
18214;SDS011;9233;51.312;6.512;2022-10-15T00:12:00;7.17;;;5.50;;
18214;SDS011;9233;51.312;6.512;2022-10-15T00:14:46;8.20;;;5.80;;
18214;SDS011;9233;51.312;6.512;2022-10-15T00:17:33;9.67;;;6.10;;
18214;SDS011;9233;51.312;6.512;2022-10-15T00:20:21;8.87;;;5.87;;
18214;SDS011;9233;51.312;6.512;2022-10-15T00:23:08;7.50;;;5.60;;
18214;SDS011;9233;51.312;6.512;2022-10-15T00:26:04;7.27;;;5.87;;
18214;SDS011;9233;51.312;6.512;2022-10-15T00:28:52;7.27;;;5.63;;
18214;SDS011;9233;51.312;6.512;2022-10-15T00:31:41;8.20;;;5.90;;
18214;SDS011;9233;51.312;6.512;2022-10-15T00:34:27;9.30;;;5.43;;
18214;SDS011;9233;51.312;6.512;2022-10-15T00:37:16;8.80;;;5.80;;
18214;SDS011;9233;51.312;6.512;2022-10-15T00:40:03;8.20;;;5.90;;
18214;SDS011;9233;51.312;6.512;2022-10-15T00:42:51;9.07;;;6.17;;
18214;SDS011;9233;51.312;6.512;2022-10-15T00:45:37;7.30;;;5.67;;
18214;SDS011;9233;51.312;6.512;2022-10-15T00:48:24;8.13;;;5.63;;
18214;SDS011;9233;51.312;6.512;2022-10-15T00:51:11;9.03;;;6.17;;
18214;SDS011;9233;51.312;6.512;2022-10-15T00:53:59;9.90;;;6.23;;
18214;SDS011;9233;51.312;6.512;2022-10-15T00:56:45;7.50;;;6.03;;
18214;SDS011;9233;51.312;6.512;2022-10-15T00:59:33;9.57;;;6.17;;
18214;SDS011;9233;51.312;6.512;2022-10-15T01:02:22;9.20;;;5.83;;
18214;SDS011;9233;51.312;6.512;2022-10-15T01:05:09;10.07;;;6.77;;
18214;SDS011;9233;51.312;6.512;2022-10-15T01:07:58;10.03;;;6.80;;
18214;SDS011;9233;51.312;6.512;2022-10-15T01:10:48;8.30;;;5.80;;
18214;SDS011;9233;51.312;6.512;2022-10-15T01:13:40;7.97;;;5.90;;
18214;SDS011;9233;51.312;6.512;2022-10-15T01:16:32;10.30;;;6.63;;
18214;SDS011;9233;51.312;6.512;2022-10-15T01:19:27;9.27;;;6.40;;
18214;SDS011;9233;51.312;6.512;2022-10-15T01:22:23;9.37;;;6.20;;
18214;SDS011;9233;51.312;6.512;2022-10-15T01:25:20;11.33;;;7.37;;
18214;SDS011;9233;51.312;6.512;2022-10-15T01:28:18;8.13;;;6.13;;
18214;SDS011;9233;51.312;6.512;2022-10-15T01:31:12;8.27;;;5.87;;
18214;SDS011;9233;51.312;6.512;2022-10-15T01:34:02;11.67;;;6.80;;
18214;SDS011;9233;51.312;6.512;2022-10-15T01:36:54;8.90;;;5.83;;
18214;SDS011;9233;51.312;6.512;2022-10-15T01:39:43;8.63;;;6.50;;
18214;SDS011;9233;51.312;6.512;2022-10-15T01:42:33;7.90;;;6.33;;
18214;SDS011;9233;51.312;6.512;2022-10-15T01:45:28;7.23;;;5.60;;
18214;SDS011;9233;51.312;6.512;2022-10-15T01:48:39;8.63;;;6.20;;
18214;SDS011;9233;51.312;6.512;2022-10-15T01:51:27;8.70;;;5.93;;
18214;SDS011;9233;51.312;6.512;2022-10-15T01:54:16;8.07;;;5.60;;
18214;SDS011;9233;51.312;6.512;2022-10-15T01:57:04;7.63;;;5.70;;
18214;SDS011;9233;51.312;6.512;2022-10-15T01:59:51;8.07;;;5.70;;
18214;SDS011;9233;51.312;6.512;2022-10-15T02:02:42;9.10;;;6.00;;
18214;SDS011;9233;51.312;6.512;2022-10-15T02:05:31;7.93;;;6.27;;
18214;SDS011;9233;51.312;6.512;2022-10-15T02:08:21;8.33;;;5.50;;
18214;SDS011;9233;51.312;6.512;2022-10-15T02:11:13;9.87;;;5.73;;
18214;SDS011;9233;51.312;6.512;2022-10-15T02:14:02;10.50;;;5.57;;
18214;SDS011;9233;51.312;6.512;2022-10-15T02:16:53;9.97;;;5.67;;
18214;SDS011;9233;51.312;6.512;2022-10-15T02:19:47;7.27;;;5.40;;
18214;SDS011;9233;51.312;6.512;2022-10-15T02:22:37;8.97;;;6.00;;
18214;SDS011;9233;51.312;6.512;2022-10-15T02:25:26;6.93;;;5.50;;
18214;SDS011;9233;51.312;6.512;2022-10-15T02:28:13;7.47;;;5.73;;
18214;SDS011;9233;51.312;6.512;2022-10-15T02:31:02;6.50;;;5.17;;
18214;SDS011;9233;51.312;6.512;2022-10-15T02:33:50;8.63;;;5.70;;
18214;SDS011;9233;51.312;6.512;2022-10-15T02:36:38;8.07;;;5.40;;
18214;SDS011;9233;51.312;6.512;2022-10-15T02:39:30;8.47;;;5.90;;
18214;SDS011;9233;51.312;6.512;2022-10-15T02:42:17;9.73;;;5.43;;
18214;SDS011;9233;51.312;6.512;2022-10-15T02:45:07;7.40;;;5.37;;
18214;SDS011;9233;51.312;6.512;2022-10-15T02:47:54;9.13;;;5.93;;
18214;SDS011;9233;51.312;6.512;2022-10-15T02:50:42;9.77;;;6.50;;
18214;SDS011;9233;51.312;6.512;2022-10-15T02:53:32;9.10;;;6.37;;
18214;SDS011;9233;51.312;6.512;2022-10-15T02:56:20;8.93;;;6.07;;
18214;SDS011;9233;51.312;6.512;2022-10-15T02:59:07;9.33;;;6.30;;
18214;SDS011;9233;51.312;6.512;2022-10-15T03:01:54;9.93;;;6.73;;
18214;SDS011;9233;51.312;6.512;2022-10-15T03:04:40;7.53;;;5.87;;
18214;SDS011;9233;51.312;6.512;2022-10-15T03:07:27;9.47;;;6.13;;
18214;SDS011;9233;51.312;6.512;2022-10-15T03:10:15;12.27;;;6.00;;
18214;SDS011;9233;51.312;6.512;2022-10-15T03:13:03;9.40;;;6.03;;
18214;SDS011;9233;51.312;6.512;2022-10-15T03:15:54;8.03;;;5.57;;
18214;SDS011;9233;51.312;6.512;2022-10-15T03:18:41;11.20;;;5.77;;
18214;SDS011;9233;51.312;6.512;2022-10-15T03:21:29;9.90;;;6.47;;
18214;SDS011;9233;51.312;6.512;2022-10-15T03:24:22;7.90;;;5.70;;
18214;SDS011;9233;51.312;6.512;2022-10-15T03:27:10;10.60;;;6.07;;
18214;SDS011;9233;51.312;6.512;2022-10-15T03:29:59;9.10;;;5.77;;
18214;SDS011;9233;51.312;6.512;2022-10-15T03:32:48;7.87;;;5.87;;
18214;SDS011;9233;51.312;6.512;2022-10-15T03:35:35;8.00;;;5.77;;
18214;SDS011;9233;51.312;6.512;2022-10-15T03:38:23;10.47;;;6.27;;
18214;SDS011;9233;51.312;6.512;2022-10-15T03:41:11;9.37;;;5.73;;
18214;SDS011;9233;51.312;6.512;2022-10-15T03:44:00;9.20;;;5.63;;
18214;SDS011;9233;51.312;6.512;2022-10-15T03:46:49;8.10;;;5.43;;
18214;SDS011;9233;51.312;6.512;2022-10-15T03:49:42;7.57;;;5.67;;
18214;SDS011;9233;51.312;6.512;2022-10-15T03:52:29;9.20;;;6.37;;
18214;SDS011;9233;51.312;6.512;2022-10-15T03:55:15;11.50;;;6.17;;
18214;SDS011;9233;51.312;6.512;2022-10-15T03:58:04;9.27;;;6.10;;
18214;SDS011;9233;51.312;6.512;2022-10-15T04:00:51;8.30;;;6.33;;
18214;SDS011;9233;51.312;6.512;2022-10-15T04:03:39;11.77;;;6.63;;
18214;SDS011;9233;51.312;6.512;2022-10-15T04:06:27;7.80;;;5.87;;
18214;SDS011;9233;51.312;6.512;2022-10-15T04:09:13;7.77;;;6.20;;
18214;SDS011;9233;51.312;6.512;2022-10-15T04:12:00;9.50;;;5.93;;
18214;SDS011;9233;51.312;6.512;2022-10-15T04:14:47;8.50;;;5.93;;
18214;SDS011;9233;51.312;6.512;2022-10-15T04:17:34;9.37;;;6.30;;
18214;SDS011;9233;51.312;6.512;2022-10-15T04:20:22;12.33;;;6.00;;
18214;SDS011;9233;51.312;6.512;2022-10-15T04:23:09;9.37;;;6.10;;
18214;SDS011;9233;51.312;6.512;2022-10-15T04:25:58;10.20;;;6.67;;
18214;SDS011;9233;51.312;6.512;2022-10-15T04:28:46;8.13;;;5.93;;
18214;SDS011;9233;51.312;6.512;2022-10-15T04:31:32;8.87;;;6.03;;
18214;SDS011;9233;51.312;6.512;2022-10-15T04:34:20;9.07;;;5.70;;
18214;SDS011;9233;51.312;6.512;2022-10-15T04:37:09;7.70;;;5.77;;
18214;SDS011;9233;51.312;6.512;2022-10-15T04:39:56;11.73;;;6.57;;
18214;SDS011;9233;51.312;6.512;2022-10-15T04:42:43;8.57;;;6.33;;
18214;SDS011;9233;51.312;6.512;2022-10-15T04:45:31;9.17;;;6.10;;
18214;SDS011;9233;51.312;6.512;2022-10-15T04:48:18;8.37;;;6.03;;
18214;SDS011;9233;51.312;6.512;2022-10-15T04:51:08;9.40;;;6.33;;
18214;SDS011;9233;51.312;6.512;2022-10-15T04:54:10;7.80;;;5.50;;
18214;SDS011;9233;51.312;6.512;2022-10-15T04:57:12;8.07;;;5.60;;
18214;SDS011;9233;51.312;6.512;2022-10-15T05:00:01;8.67;;;5.57;;
18214;SDS011;9233;51.312;6.512;2022-10-15T05:02:50;7.87;;;5.40;;
18214;SDS011;9233;51.312;6.512;2022-10-15T05:06:03;7.20;;;5.37;;
18214;SDS011;9233;51.312;6.512;2022-10-15T05:08:58;10.73;;;6.13;;
18214;SDS011;9233;51.312;6.512;2022-10-15T05:11:50;8.70;;;5.90;;
18214;SDS011;9233;51.312;6.512;2022-10-15T05:14:37;8.27;;;5.40;;
18214;SDS011;9233;51.312;6.512;2022-10-15T05:17:36;8.70;;;5.97;;
18214;SDS011;9233;51.312;6.512;2022-10-15T05:20:23;8.20;;;5.60;;
18214;SDS011;9233;51.312;6.512;2022-10-15T05:23:11;8.63;;;5.60;;
18214;SDS011;9233;51.312;6.512;2022-10-15T05:26:01;12.30;;;5.80;;
18214;SDS011;9233;51.312;6.512;2022-10-15T05:28:50;9.00;;;5.97;;
18214;SDS011;9233;51.312;6.512;2022-10-15T05:31:44;9.20;;;6.17;;
18214;SDS011;9233;51.312;6.512;2022-10-15T05:34:41;10.07;;;5.87;;
18214;SDS011;9233;51.312;6.512;2022-10-15T05:37:34;8.63;;;5.80;;
18214;SDS011;9233;51.312;6.512;2022-10-15T05:40:22;9.77;;;5.03;;
18214;SDS011;9233;51.312;6.512;2022-10-15T05:43:21;9.97;;;5.90;;
18214;SDS011;9233;51.312;6.512;2022-10-15T05:46:09;7.93;;;5.27;;
18214;SDS011;9233;51.312;6.512;2022-10-15T05:48:56;11.57;;;5.30;;
18214;SDS011;9233;51.312;6.512;2022-10-15T05:51:45;8.33;;;5.60;;
18214;SDS011;9233;51.312;6.512;2022-10-15T05:54:39;8.80;;;5.60;;
18214;SDS011;9233;51.312;6.512;2022-10-15T05:57:26;13.13;;;5.33;;
18214;SDS011;9233;51.312;6.512;2022-10-15T06:00:13;9.83;;;4.93;;
18214;SDS011;9233;51.312;6.512;2022-10-15T06:03:01;11.17;;;5.17;;
18214;SDS011;9233;51.312;6.512;2022-10-15T06:05:48;8.13;;;5.20;;
18214;SDS011;9233;51.312;6.512;2022-10-15T06:08:35;7.83;;;5.17;;
18214;SDS011;9233;51.312;6.512;2022-10-15T06:11:22;6.90;;;4.93;;
18214;SDS011;9233;51.312;6.512;2022-10-15T06:14:08;9.53;;;5.53;;
18214;SDS011;9233;51.312;6.512;2022-10-15T06:16:55;8.90;;;5.63;;
18214;SDS011;9233;51.312;6.512;2022-10-15T06:19:43;12.17;;;5.60;;
18214;SDS011;9233;51.312;6.512;2022-10-15T06:22:29;9.40;;;5.80;;
18214;SDS011;9233;51.312;6.512;2022-10-15T06:25:16;10.63;;;6.03;;
18214;SDS011;9233;51.312;6.512;2022-10-15T06:28:03;11.40;;;6.00;;
18214;SDS011;9233;51.312;6.512;2022-10-15T06:30:59;9.50;;;5.87;;
18214;SDS011;9233;51.312;6.512;2022-10-15T06:33:48;9.40;;;5.83;;
18214;SDS011;9233;51.312;6.512;2022-10-15T06:36:36;11.13;;;5.97;;
18214;SDS011;9233;51.312;6.512;2022-10-15T06:39:23;9.67;;;5.73;;
18214;SDS011;9233;51.312;6.512;2022-10-15T06:42:09;10.17;;;6.17;;
18214;SDS011;9233;51.312;6.512;2022-10-15T06:44:59;11.03;;;6.33;;
18214;SDS011;9233;51.312;6.512;2022-10-15T06:47:45;11.90;;;6.83;;
18214;SDS011;9233;51.312;6.512;2022-10-15T06:50:32;10.97;;;7.50;;
18214;SDS011;9233;51.312;6.512;2022-10-15T06:53:21;16.90;;;8.37;;
18214;SDS011;9233;51.312;6.512;2022-10-15T06:56:07;10.70;;;6.93;;
18214;SDS011;9233;51.312;6.512;2022-10-15T06:58:56;14.07;;;7.90;;
18214;SDS011;9233;51.312;6.512;2022-10-15T07:01:43;12.03;;;7.67;;
18214;SDS011;9233;51.312;6.512;2022-10-15T07:04:29;13.43;;;7.87;;
18214;SDS011;9233;51.312;6.512;2022-10-15T07:07:16;15.00;;;8.60;;
18214;SDS011;9233;51.312;6.512;2022-10-15T07:10:05;15.20;;;9.20;;
18214;SDS011;9233;51.312;6.512;2022-10-15T07:12:52;18.07;;;9.00;;
18214;SDS011;9233;51.312;6.512;2022-10-15T07:15:39;15.73;;;9.27;;
18214;SDS011;9233;51.312;6.512;2022-10-15T07:18:25;17.20;;;9.00;;
18214;SDS011;9233;51.312;6.512;2022-10-15T07:21:12;13.70;;;8.90;;
18214;SDS011;9233;51.312;6.512;2022-10-15T07:23:58;14.73;;;8.73;;
18214;SDS011;9233;51.312;6.512;2022-10-15T07:26:47;14.63;;;9.20;;
18214;SDS011;9233;51.312;6.512;2022-10-15T07:29:33;18.93;;;10.23;;
18214;SDS011;9233;51.312;6.512;2022-10-15T07:32:20;16.47;;;9.37;;
18214;SDS011;9233;51.312;6.512;2022-10-15T07:35:07;18.93;;;9.03;;
18214;SDS011;9233;51.312;6.512;2022-10-15T07:37:53;17.60;;;9.33;;
18214;SDS011;9233;51.312;6.512;2022-10-15T07:40:40;16.53;;;9.00;;
18214;SDS011;9233;51.312;6.512;2022-10-15T07:43:28;15.73;;;9.17;;
18214;SDS011;9233;51.312;6.512;2022-10-15T07:46:14;17.93;;;9.37;;
18214;SDS011;9233;51.312;6.512;2022-10-15T07:49:01;17.13;;;9.43;;
18214;SDS011;9233;51.312;6.512;2022-10-15T07:51:48;16.63;;;8.97;;
18214;SDS011;9233;51.312;6.512;2022-10-15T07:54:35;14.90;;;9.33;;
18214;SDS011;9233;51.312;6.512;2022-10-15T07:57:22;17.13;;;9.30;;
18214;SDS011;9233;51.312;6.512;2022-10-15T08:00:11;14.73;;;8.93;;
18214;SDS011;9233;51.312;6.512;2022-10-15T08:02:58;15.40;;;9.13;;
18214;SDS011;9233;51.312;6.512;2022-10-15T08:05:45;14.67;;;9.03;;
18214;SDS011;9233;51.312;6.512;2022-10-15T08:08:32;14.57;;;8.80;;
18214;SDS011;9233;51.312;6.512;2022-10-15T08:11:19;14.90;;;9.00;;
18214;SDS011;9233;51.312;6.512;2022-10-15T08:14:05;13.70;;;8.80;;
18214;SDS011;9233;51.312;6.512;2022-10-15T08:16:53;13.57;;;8.67;;
18214;SDS011;9233;51.312;6.512;2022-10-15T08:19:41;18.17;;;8.73;;
18214;SDS011;9233;51.312;6.512;2022-10-15T08:22:27;17.30;;;8.70;;
18214;SDS011;9233;51.312;6.512;2022-10-15T08:25:14;12.30;;;8.20;;
18214;SDS011;9233;51.312;6.512;2022-10-15T08:28:01;13.67;;;8.47;;
18214;SDS011;9233;51.312;6.512;2022-10-15T08:30:47;17.23;;;8.27;;
18214;SDS011;9233;51.312;6.512;2022-10-15T08:33:36;12.83;;;8.27;;
18214;SDS011;9233;51.312;6.512;2022-10-15T08:36:24;10.47;;;6.97;;
18214;SDS011;9233;51.312;6.512;2022-10-15T08:39:11;10.60;;;6.77;;
18214;SDS011;9233;51.312;6.512;2022-10-15T08:42:00;9.87;;;6.60;;
18214;SDS011;9233;51.312;6.512;2022-10-15T08:44:52;10.77;;;6.33;;
18214;SDS011;9233;51.312;6.512;2022-10-15T08:47:41;10.50;;;6.17;;
18214;SDS011;9233;51.312;6.512;2022-10-15T08:50:35;12.03;;;6.43;;
18214;SDS011;9233;51.312;6.512;2022-10-15T08:53:24;8.43;;;5.10;;
18214;SDS011;9233;51.312;6.512;2022-10-15T08:56:14;9.83;;;4.63;;
18214;SDS011;9233;51.312;6.512;2022-10-15T08:59:04;6.77;;;4.50;;
18214;SDS011;9233;51.312;6.512;2022-10-15T09:01:54;8.57;;;3.50;;
18214;SDS011;9233;51.312;6.512;2022-10-15T09:04:46;6.03;;;3.70;;
18214;SDS011;9233;51.312;6.512;2022-10-15T09:07:40;7.37;;;3.47;;
18214;SDS011;9233;51.312;6.512;2022-10-15T09:10:30;5.77;;;3.00;;
18214;SDS011;9233;51.312;6.512;2022-10-15T09:13:23;8.17;;;2.90;;
18214;SDS011;9233;51.312;6.512;2022-10-15T09:16:13;3.93;;;2.90;;
18214;SDS011;9233;51.312;6.512;2022-10-15T09:19:02;9.17;;;5.10;;
18214;SDS011;9233;51.312;6.512;2022-10-15T09:21:51;2.80;;;2.30;;
18214;SDS011;9233;51.312;6.512;2022-10-15T09:24:39;3.40;;;2.13;;
18214;SDS011;9233;51.312;6.512;2022-10-15T09:27:26;3.20;;;2.20;;
18214;SDS011;9233;51.312;6.512;2022-10-15T09:30:27;3.30;;;1.73;;
18214;SDS011;9233;51.312;6.512;2022-10-15T09:33:22;5.13;;;2.00;;
18214;SDS011;9233;51.312;6.512;2022-10-15T09:36:23;1.87;;;1.67;;
18214;SDS011;9233;51.312;6.512;2022-10-15T09:39:20;1.40;;;1.30;;
18214;SDS011;9233;51.312;6.512;2022-10-15T09:42:21;1.40;;;1.30;;
18214;SDS011;9233;51.312;6.512;2022-10-15T09:45:15;2.17;;;1.10;;
18214;SDS011;9233;51.312;6.512;2022-10-15T09:48:04;1.33;;;1.20;;
18214;SDS011;9233;51.312;6.512;2022-10-15T09:50:59;1.40;;;1.10;;
18214;SDS011;9233;51.312;6.512;2022-10-15T09:53:50;0.97;;;0.87;;
18214;SDS011;9233;51.312;6.512;2022-10-15T09:56:41;1.43;;;1.10;;
18214;SDS011;9233;51.312;6.512;2022-10-15T09:59:32;1.10;;;1.00;;
18214;SDS011;9233;51.312;6.512;2022-10-15T10:02:22;3.23;;;1.30;;
18214;SDS011;9233;51.312;6.512;2022-10-15T10:05:19;3.53;;;1.03;;
18214;SDS011;9233;51.312;6.512;2022-10-15T10:08:16;0.80;;;0.80;;
18214;SDS011;9233;51.312;6.512;2022-10-15T10:11:05;2.37;;;0.90;;
18214;SDS011;9233;51.312;6.512;2022-10-15T10:13:54;2.27;;;1.20;;
18214;SDS011;9233;51.312;6.512;2022-10-15T10:20:03;1.53;;;0.80;;
18214;SDS011;9233;51.312;6.512;2022-10-15T10:22:58;1.30;;;1.10;;
18214;SDS011;9233;51.312;6.512;2022-10-15T10:25:46;4.43;;;1.10;;
18214;SDS011;9233;51.312;6.512;2022-10-15T10:28:33;1.07;;;0.97;;
18214;SDS011;9233;51.312;6.512;2022-10-15T10:31:26;2.97;;;1.00;;
18214;SDS011;9233;51.312;6.512;2022-10-15T10:34:15;1.33;;;0.87;;
18214;SDS011;9233;51.312;6.512;2022-10-15T10:37:03;1.30;;;1.20;;
18214;SDS011;9233;51.312;6.512;2022-10-15T10:39:52;2.17;;;1.00;;
18214;SDS011;9233;51.312;6.512;2022-10-15T10:42:40;2.60;;;1.50;;
18214;SDS011;9233;51.312;6.512;2022-10-15T10:45:27;1.47;;;1.00;;
18214;SDS011;9233;51.312;6.512;2022-10-15T10:48:17;2.70;;;1.23;;
18214;SDS011;9233;51.312;6.512;2022-10-15T10:51:07;1.13;;;1.03;;
18214;SDS011;9233;51.312;6.512;2022-10-15T10:53:58;3.17;;;1.10;;
18214;SDS011;9233;51.312;6.512;2022-10-15T10:56:46;2.03;;;1.10;;
18214;SDS011;9233;51.312;6.512;2022-10-15T10:59:34;2.17;;;1.17;;
18214;SDS011;9233;51.312;6.512;2022-10-15T11:02:23;2.30;;;1.40;;
18214;SDS011;9233;51.312;6.512;2022-10-15T11:05:10;2.93;;;1.97;;
18214;SDS011;9233;51.312;6.512;2022-10-15T11:07:59;1.50;;;1.40;;
18214;SDS011;9233;51.312;6.512;2022-10-15T11:10:54;3.10;;;1.00;;
18214;SDS011;9233;51.312;6.512;2022-10-15T11:13:48;1.83;;;1.10;;
18214;SDS011;9233;51.312;6.512;2022-10-15T11:16:42;3.33;;;0.93;;
18214;SDS011;9233;51.312;6.512;2022-10-15T11:19:33;2.87;;;1.20;;
18214;SDS011;9233;51.312;6.512;2022-10-15T11:22:30;2.13;;;1.00;;
18214;SDS011;9233;51.312;6.512;2022-10-15T11:25:28;2.50;;;0.97;;
18214;SDS011;9233;51.312;6.512;2022-10-15T11:28:24;2.25;;;1.02;;
18214;SDS011;9233;51.312;6.512;2022-10-15T11:31:19;2.23;;;0.73;;
18214;SDS011;9233;51.312;6.512;2022-10-15T11:34:13;1.10;;;0.90;;
18214;SDS011;9233;51.312;6.512;2022-10-15T11:37:14;2.20;;;0.63;;
18214;SDS011;9233;51.312;6.512;2022-10-15T11:40:12;0.70;;;0.70;;
18214;SDS011;9233;51.312;6.512;2022-10-15T11:43:02;1.33;;;0.80;;
18214;SDS011;9233;51.312;6.512;2022-10-15T11:45:55;1.67;;;0.90;;
18214;SDS011;9233;51.312;6.512;2022-10-15T11:48:49;1.23;;;0.83;;
18214;SDS011;9233;51.312;6.512;2022-10-15T11:51:48;0.77;;;0.50;;
18214;SDS011;9233;51.312;6.512;2022-10-15T11:54:51;1.07;;;0.77;;
18214;SDS011;9233;51.312;6.512;2022-10-15T11:57:41;0.90;;;0.50;;
18214;SDS011;9233;51.312;6.512;2022-10-15T12:00:30;0.60;;;0.60;;
18214;SDS011;9233;51.312;6.512;2022-10-15T12:03:20;1.43;;;0.47;;
18214;SDS011;9233;51.312;6.512;2022-10-15T12:06:09;1.60;;;0.80;;
18214;SDS011;9233;51.312;6.512;2022-10-15T12:08:59;2.33;;;0.57;;
18214;SDS011;9233;51.312;6.512;2022-10-15T12:11:47;1.33;;;0.60;;
18214;SDS011;9233;51.312;6.512;2022-10-15T12:14:37;1.07;;;0.50;;
18214;SDS011;9233;51.312;6.512;2022-10-15T12:17:29;0.60;;;0.60;;
18214;SDS011;9233;51.312;6.512;2022-10-15T12:20:22;0.47;;;0.40;;
18214;SDS011;9233;51.312;6.512;2022-10-15T12:23:21;0.77;;;0.60;;
18214;SDS011;9233;51.312;6.512;2022-10-15T12:26:25;0.60;;;0.50;;
18214;SDS011;9233;51.312;6.512;2022-10-15T12:29:18;0.57;;;0.40;;
18214;SDS011;9233;51.312;6.512;2022-10-15T12:32:14;0.40;;;0.40;;
18214;SDS011;9233;51.312;6.512;2022-10-15T12:35:16;2.00;;;0.40;;
18214;SDS011;9233;51.312;6.512;2022-10-15T12:38:09;0.40;;;0.40;;
18214;SDS011;9233;51.312;6.512;2022-10-15T12:41:03;1.17;;;0.43;;
18214;SDS011;9233;51.312;6.512;2022-10-15T12:43:52;2.10;;;0.50;;
18214;SDS011;9233;51.312;6.512;2022-10-15T12:46:50;3.07;;;1.63;;
18214;SDS011;9233;51.312;6.512;2022-10-15T12:49:50;0.70;;;0.70;;
18214;SDS011;9233;51.312;6.512;2022-10-15T12:52:49;1.13;;;0.50;;
18214;SDS011;9233;51.312;6.512;2022-10-15T12:55:46;2.13;;;0.40;;
18214;SDS011;9233;51.312;6.512;2022-10-15T12:59:27;0.40;;;0.40;;
18214;SDS011;9233;51.312;6.512;2022-10-15T13:02:29;0.67;;;0.50;;
18214;SDS011;9233;51.312;6.512;2022-10-15T13:05:24;0.30;;;0.30;;
18214;SDS011;9233;51.312;6.512;2022-10-15T13:08:15;0.27;;;0.27;;
18214;SDS011;9233;51.312;6.512;2022-10-15T13:11:11;0.30;;;0.30;;
18214;SDS011;9233;51.312;6.512;2022-10-15T13:14:11;0.30;;;0.27;;
18214;SDS011;9233;51.312;6.512;2022-10-15T13:17:04;0.30;;;0.30;;
18214;SDS011;9233;51.312;6.512;2022-10-15T13:19:53;0.20;;;0.20;;
18214;SDS011;9233;51.312;6.512;2022-10-15T13:22:42;0.30;;;0.30;;
18214;SDS011;9233;51.312;6.512;2022-10-15T13:25:29;0.73;;;0.47;;
18214;SDS011;9233;51.312;6.512;2022-10-15T13:28:28;0.30;;;0.30;;
18214;SDS011;9233;51.312;6.512;2022-10-15T13:31:22;0.30;;;0.30;;
18214;SDS011;9233;51.312;6.512;2022-10-15T13:34:10;1.40;;;0.50;;
18214;SDS011;9233;51.312;6.512;2022-10-15T13:37:02;0.30;;;0.30;;
18214;SDS011;9233;51.312;6.512;2022-10-15T13:39:50;0.30;;;0.30;;
18214;SDS011;9233;51.312;6.512;2022-10-15T13:42:37;0.93;;;0.43;;
18214;SDS011;9233;51.312;6.512;2022-10-15T13:45:23;0.20;;;0.20;;
18214;SDS011;9233;51.312;6.512;2022-10-15T13:48:11;0.50;;;0.23;;
18214;SDS011;9233;51.312;6.512;2022-10-15T13:50:58;1.03;;;0.30;;
18214;SDS011;9233;51.312;6.512;2022-10-15T13:53:45;0.50;;;0.40;;
18214;SDS011;9233;51.312;6.512;2022-10-15T13:56:32;0.77;;;0.47;;
18214;SDS011;9233;51.312;6.512;2022-10-15T13:59:19;3.63;;;0.50;;
18214;SDS011;9233;51.312;6.512;2022-10-15T14:02:09;0.90;;;0.50;;
18214;SDS011;9233;51.312;6.512;2022-10-15T14:05:07;2.40;;;0.40;;
18214;SDS011;9233;51.312;6.512;2022-10-15T14:08:00;2.17;;;1.20;;
18214;SDS011;9233;51.312;6.512;2022-10-15T14:10:47;1.83;;;0.70;;
18214;SDS011;9233;51.312;6.512;2022-10-15T14:13:34;2.47;;;0.53;;
18214;SDS011;9233;51.312;6.512;2022-10-15T14:16:29;1.63;;;0.30;;
18214;SDS011;9233;51.312;6.512;2022-10-15T14:19:18;1.37;;;0.50;;
18214;SDS011;9233;51.312;6.512;2022-10-15T14:22:15;0.83;;;0.60;;
18214;SDS011;9233;51.312;6.512;2022-10-15T14:25:03;0.40;;;0.40;;
18214;SDS011;9233;51.312;6.512;2022-10-15T14:27:54;1.13;;;0.43;;
18214;SDS011;9233;51.312;6.512;2022-10-15T14:30:41;0.90;;;0.40;;
18214;SDS011;9233;51.312;6.512;2022-10-15T14:33:29;0.33;;;0.33;;
18214;SDS011;9233;51.312;6.512;2022-10-15T14:36:25;0.40;;;0.40;;
18214;SDS011;9233;51.312;6.512;2022-10-15T14:39:20;0.50;;;0.40;;
18214;SDS011;9233;51.312;6.512;2022-10-15T14:42:24;0.30;;;0.30;;
18214;SDS011;9233;51.312;6.512;2022-10-15T14:45:13;0.70;;;0.50;;
18214;SDS011;9233;51.312;6.512;2022-10-15T14:48:07;0.57;;;0.50;;
18214;SDS011;9233;51.312;6.512;2022-10-15T14:50:56;1.33;;;0.60;;
18214;SDS011;9233;51.312;6.512;2022-10-15T14:53:43;0.60;;;0.50;;
18214;SDS011;9233;51.312;6.512;2022-10-15T14:56:32;1.10;;;0.60;;
18214;SDS011;9233;51.312;6.512;2022-10-15T14:59:19;0.60;;;0.60;;
18214;SDS011;9233;51.312;6.512;2022-10-15T15:02:11;1.33;;;0.60;;
18214;SDS011;9233;51.312;6.512;2022-10-15T15:05:05;1.10;;;0.70;;
18214;SDS011;9233;51.312;6.512;2022-10-15T15:07:54;0.90;;;0.90;;
18214;SDS011;9233;51.312;6.512;2022-10-15T15:10:41;0.60;;;0.60;;
18214;SDS011;9233;51.312;6.512;2022-10-15T15:13:30;1.03;;;0.80;;
18214;SDS011;9233;51.312;6.512;2022-10-15T15:16:22;0.60;;;0.60;;
18214;SDS011;9233;51.312;6.512;2022-10-15T15:19:09;1.03;;;0.77;;
18214;SDS011;9233;51.312;6.512;2022-10-15T15:21:55;1.90;;;0.70;;
18214;SDS011;9233;51.312;6.512;2022-10-15T15:24:42;0.67;;;0.67;;
18214;SDS011;9233;51.312;6.512;2022-10-15T15:27:30;1.67;;;0.70;;
18214;SDS011;9233;51.312;6.512;2022-10-15T15:30:23;1.63;;;0.70;;
18214;SDS011;9233;51.312;6.512;2022-10-15T15:33:11;0.60;;;0.60;;
18214;SDS011;9233;51.312;6.512;2022-10-15T15:36:00;1.20;;;0.80;;
18214;SDS011;9233;51.312;6.512;2022-10-15T15:38:47;2.13;;;0.73;;
18214;SDS011;9233;51.312;6.512;2022-10-15T15:41:34;0.80;;;0.80;;
18214;SDS011;9233;51.312;6.512;2022-10-15T15:44:20;1.07;;;0.90;;
18214;SDS011;9233;51.312;6.512;2022-10-15T15:47:08;1.97;;;0.80;;
18214;SDS011;9233;51.312;6.512;2022-10-15T15:49:55;0.80;;;0.80;;
18214;SDS011;9233;51.312;6.512;2022-10-15T15:52:42;1.80;;;0.90;;
18214;SDS011;9233;51.312;6.512;2022-10-15T15:55:28;1.10;;;1.00;;
18214;SDS011;9233;51.312;6.512;2022-10-15T15:58:15;0.70;;;0.70;;
18214;SDS011;9233;51.312;6.512;2022-10-15T16:01:01;2.10;;;1.30;;
18214;SDS011;9233;51.312;6.512;2022-10-15T16:03:49;1.10;;;1.00;;
18214;SDS011;9233;51.312;6.512;2022-10-15T16:06:36;0.83;;;0.73;;
18214;SDS011;9233;51.312;6.512;2022-10-15T16:09:23;1.97;;;0.97;;
18214;SDS011;9233;51.312;6.512;2022-10-15T16:12:12;0.90;;;0.90;;
18214;SDS011;9233;51.312;6.512;2022-10-15T16:14:58;1.40;;;0.60;;
18214;SDS011;9233;51.312;6.512;2022-10-15T16:17:45;1.10;;;0.53;;
18214;SDS011;9233;51.312;6.512;2022-10-15T16:20:33;1.63;;;0.70;;
18214;SDS011;9233;51.312;6.512;2022-10-15T16:23:23;3.23;;;0.80;;
18214;SDS011;9233;51.312;6.512;2022-10-15T16:26:10;1.60;;;0.60;;
18214;SDS011;9233;51.312;6.512;2022-10-15T16:28:57;0.77;;;0.60;;
18214;SDS011;9233;51.312;6.512;2022-10-15T16:31:43;1.30;;;0.60;;
18214;SDS011;9233;51.312;6.512;2022-10-15T16:34:30;1.37;;;0.70;;
18214;SDS011;9233;51.312;6.512;2022-10-15T16:37:18;1.73;;;0.77;;
18214;SDS011;9233;51.312;6.512;2022-10-15T16:40:05;1.70;;;0.90;;
18214;SDS011;9233;51.312;6.512;2022-10-15T16:42:52;0.30;;;0.30;;
18214;SDS011;9233;51.312;6.512;2022-10-15T16:45:39;0.80;;;0.80;;
18214;SDS011;9233;51.312;6.512;2022-10-15T16:48:25;0.80;;;0.70;;
18214;SDS011;9233;51.312;6.512;2022-10-15T16:51:13;0.80;;;0.80;;
18214;SDS011;9233;51.312;6.512;2022-10-15T16:54:02;2.30;;;0.80;;
18214;SDS011;9233;51.312;6.512;2022-10-15T16:56:48;0.83;;;0.80;;
18214;SDS011;9233;51.312;6.512;2022-10-15T16:59:37;0.97;;;0.90;;
18214;SDS011;9233;51.312;6.512;2022-10-15T17:02:23;1.13;;;1.03;;
18214;SDS011;9233;51.312;6.512;2022-10-15T17:05:10;1.23;;;1.07;;
18214;SDS011;9233;51.312;6.512;2022-10-15T17:07:56;1.20;;;1.10;;
18214;SDS011;9233;51.312;6.512;2022-10-15T17:10:44;1.23;;;1.00;;
18214;SDS011;9233;51.312;6.512;2022-10-15T17:13:31;1.13;;;0.90;;
18214;SDS011;9233;51.312;6.512;2022-10-15T17:16:18;2.77;;;0.90;;
18214;SDS011;9233;51.312;6.512;2022-10-15T17:19:06;1.00;;;0.90;;